sensor_id;sensor_type;location;lat;lon;timestamp;pressure;altitude;pressure_sealevel;temperature;humidity
41062;BME280;26812;42.662;23.352;2023-02-11T00:01:35;96544.59;;;-1.42;53.43
41062;BME280;26812;42.662;23.352;2023-02-11T00:04:02;96581.88;;;-1.17;53.83
41062;BME280;26812;42.662;23.352;2023-02-11T00:06:29;96569.00;;;-1.27;53.53
41062;BME280;26812;42.662;23.352;2023-02-11T00:08:55;96565.97;;;-1.31;54.18
41062;BME280;26812;42.662;23.352;2023-02-11T00:11:23;96572.69;;;-1.15;53.07
41062;BME280;26812;42.662;23.352;2023-02-11T00:13:51;96555.78;;;-1.34;53.87
41062;BME280;26812;42.662;23.352;2023-02-11T00:16:18;96573.09;;;-1.25;53.57
41062;BME280;26812;42.662;23.352;2023-02-11T00:18:44;96560.66;;;-1.37;54.00
41062;BME280;26812;42.662;23.352;2023-02-11T00:21:18;96540.94;;;-1.48;53.84
41062;BME280;26812;42.662;23.352;2023-02-11T00:23:44;96533.00;;;-1.48;53.26
41062;BME280;26812;42.662;23.352;2023-02-11T00:26:19;96554.81;;;-1.19;52.56
41062;BME280;26812;42.662;23.352;2023-02-11T00:28:45;96560.28;;;-1.21;52.91
41062;BME280;26812;42.662;23.352;2023-02-11T00:31:12;96559.06;;;-1.18;52.61
41062;BME280;26812;42.662;23.352;2023-02-11T00:33:38;96548.25;;;-1.50;52.32
41062;BME280;26812;42.662;23.352;2023-02-11T00:36:12;96564.09;;;-1.57;53.20
41062;BME280;26812;42.662;23.352;2023-02-11T00:38:38;96526.25;;;-1.83;52.94
41062;BME280;26812;42.662;23.352;2023-02-11T00:41:04;96554.09;;;-1.81;53.36
41062;BME280;26812;42.662;23.352;2023-02-11T00:43:29;96564.69;;;-1.68;54.13
41062;BME280;26812;42.662;23.352;2023-02-11T00:45:54;96564.06;;;-1.70;53.12
41062;BME280;26812;42.662;23.352;2023-02-11T00:48:20;96548.97;;;-1.89;53.89
41062;BME280;26812;42.662;23.352;2023-02-11T00:50:45;96553.28;;;-1.75;53.40
41062;BME280;26812;42.662;23.352;2023-02-11T00:53:11;96560.63;;;-1.64;53.33
41062;BME280;26812;42.662;23.352;2023-02-11T00:55:36;96526.66;;;-1.80;53.08
41062;BME280;26812;42.662;23.352;2023-02-11T00:58:01;96537.38;;;-1.88;53.43
41062;BME280;26812;42.662;23.352;2023-02-11T01:00:27;96548.41;;;-1.78;53.09
41062;BME280;26812;42.662;23.352;2023-02-11T01:02:53;96558.31;;;-1.93;53.23
41062;BME280;26812;42.662;23.352;2023-02-11T01:05:19;96557.25;;;-2.05;54.05
41062;BME280;26812;42.662;23.352;2023-02-11T01:07:45;96508.44;;;-2.16;53.03
41062;BME280;26812;42.662;23.352;2023-02-11T01:10:10;96537.16;;;-2.00;53.77
41062;BME280;26812;42.662;23.352;2023-02-11T01:12:36;96548.31;;;-2.11;54.14
41062;BME280;26812;42.662;23.352;2023-02-11T01:15:03;96536.94;;;-2.05;53.89
41062;BME280;26812;42.662;23.352;2023-02-11T01:17:29;96524.09;;;-2.14;53.57
41062;BME280;26812;42.662;23.352;2023-02-11T01:19:54;96553.53;;;-2.17;54.36
41062;BME280;26812;42.662;23.352;2023-02-11T01:22:20;96527.19;;;-2.04;54.58
41062;BME280;26812;42.662;23.352;2023-02-11T01:24:45;96532.81;;;-2.21;54.41
41062;BME280;26812;42.662;23.352;2023-02-11T01:27:11;96519.06;;;-2.09;53.40
41062;BME280;26812;42.662;23.352;2023-02-11T01:29:36;96521.09;;;-2.11;54.16
41062;BME280;26812;42.662;23.352;2023-02-11T01:32:01;96543.47;;;-1.94;53.51
41062;BME280;26812;42.662;23.352;2023-02-11T01:34:27;96529.94;;;-2.26;53.93
41062;BME280;26812;42.662;23.352;2023-02-11T01:36:57;96540.28;;;-2.31;53.79
41062;BME280;26812;42.662;23.352;2023-02-11T01:39:23;96505.56;;;-2.75;54.86
41062;BME280;26812;42.662;23.352;2023-02-11T01:41:49;96548.31;;;-2.45;55.58
41062;BME280;26812;42.662;23.352;2023-02-11T01:46:50;96523.19;;;-2.41;54.62
41062;BME280;26812;42.662;23.352;2023-02-11T01:49:18;96534.22;;;-2.25;54.59
41062;BME280;26812;42.662;23.352;2023-02-11T01:51:49;96537.34;;;-2.08;53.83
41062;BME280;26812;42.662;23.352;2023-02-11T01:54:18;96529.00;;;-2.11;53.90
41062;BME280;26812;42.662;23.352;2023-02-11T01:57:04;96515.53;;;-2.23;54.05
41062;BME280;26812;42.662;23.352;2023-02-11T02:02:59;96533.28;;;-2.04;53.34
41062;BME280;26812;42.662;23.352;2023-02-11T02:10:49;96499.28;;;-2.27;53.25
41062;BME280;26812;42.662;23.352;2023-02-11T02:13:18;96521.91;;;-2.04;52.98
41062;BME280;26812;42.662;23.352;2023-02-11T02:15:55;96515.63;;;-2.03;53.27
41062;BME280;26812;42.662;23.352;2023-02-11T02:23:50;96538.75;;;-2.05;53.37
41062;BME280;26812;42.662;23.352;2023-02-11T02:37:23;96543.75;;;-2.30;54.23
41062;BME280;26812;42.662;23.352;2023-02-11T02:39:51;96539.66;;;-2.33;54.16
41062;BME280;26812;42.662;23.352;2023-02-11T02:42:18;96527.47;;;-2.40;54.16
41062;BME280;26812;42.662;23.352;2023-02-11T02:44:49;96530.63;;;-2.52;53.97
41062;BME280;26812;42.662;23.352;2023-02-11T02:47:14;96529.78;;;-2.59;54.70
41062;BME280;26812;42.662;23.352;2023-02-11T02:49:40;96518.28;;;-2.79;54.18
41062;BME280;26812;42.662;23.352;2023-02-11T03:03:44;96542.19;;;-2.53;54.59
41062;BME280;26812;42.662;23.352;2023-02-11T03:09:07;96531.19;;;-2.63;54.63
41062;BME280;26812;42.662;23.352;2023-02-11T03:11:36;96525.50;;;-2.66;55.00
41062;BME280;26812;42.662;23.352;2023-02-11T03:14:05;96514.91;;;-2.73;54.72
41062;BME280;26812;42.662;23.352;2023-02-11T03:16:38;96526.94;;;-2.57;54.39
41062;BME280;26812;42.662;23.352;2023-02-11T03:19:32;96536.19;;;-2.40;53.85
41062;BME280;26812;42.662;23.352;2023-02-11T03:22:02;96534.31;;;-2.46;53.61
41062;BME280;26812;42.662;23.352;2023-02-11T03:24:34;96537.75;;;-2.45;53.99
41062;BME280;26812;42.662;23.352;2023-02-11T03:27:08;96541.66;;;-2.41;53.54
41062;BME280;26812;42.662;23.352;2023-02-11T03:30:00;96542.09;;;-2.38;53.67
41062;BME280;26812;42.662;23.352;2023-02-11T03:32:37;96531.31;;;-2.43;53.95
41062;BME280;26812;42.662;23.352;2023-02-11T03:35:14;96532.53;;;-2.39;53.88
41062;BME280;26812;42.662;23.352;2023-02-11T03:40:21;96514.53;;;-2.63;53.82
41062;BME280;26812;42.662;23.352;2023-02-11T03:42:51;96539.97;;;-2.49;53.77
41062;BME280;26812;42.662;23.352;2023-02-11T03:45:20;96517.44;;;-2.52;53.51
41062;BME280;26812;42.662;23.352;2023-02-11T03:47:52;96516.41;;;-2.57;53.58
41062;BME280;26812;42.662;23.352;2023-02-11T03:50:19;96498.88;;;-2.71;53.39
41062;BME280;26812;42.662;23.352;2023-02-11T03:52:46;96525.28;;;-2.65;53.72
41062;BME280;26812;42.662;23.352;2023-02-11T03:55:17;96529.94;;;-2.73;54.66
41062;BME280;26812;42.662;23.352;2023-02-11T03:57:43;96525.66;;;-2.74;55.18
41062;BME280;26812;42.662;23.352;2023-02-11T04:00:09;96511.78;;;-2.83;54.96
41062;BME280;26812;42.662;23.352;2023-02-11T04:02:36;96522.63;;;-2.71;54.27
41062;BME280;26812;42.662;23.352;2023-02-11T04:05:06;96532.41;;;-2.65;54.41
41062;BME280;26812;42.662;23.352;2023-02-11T04:07:32;96533.63;;;-2.61;54.11
41062;BME280;26812;42.662;23.352;2023-02-11T04:09:57;96482.88;;;-3.04;54.02
41062;BME280;26812;42.662;23.352;2023-02-11T04:12:23;96490.63;;;-2.96;54.28
41062;BME280;26812;42.662;23.352;2023-02-11T04:14:49;96506.31;;;-2.82;54.16
41062;BME280;26812;42.662;23.352;2023-02-11T04:17:14;96527.09;;;-2.72;54.06
41062;BME280;26812;42.662;23.352;2023-02-11T04:19:40;96531.38;;;-2.64;54.14
41062;BME280;26812;42.662;23.352;2023-02-11T04:22:06;96532.91;;;-2.76;54.28
41062;BME280;26812;42.662;23.352;2023-02-11T04:24:31;96483.63;;;-3.10;54.80
41062;BME280;26812;42.662;23.352;2023-02-11T04:26:57;96504.78;;;-3.04;55.05
41062;BME280;26812;42.662;23.352;2023-02-11T04:29:22;96533.91;;;-2.84;54.42
41062;BME280;26812;42.662;23.352;2023-02-11T04:31:48;96526.97;;;-2.92;54.96
41062;BME280;26812;42.662;23.352;2023-02-11T04:34:20;96519.19;;;-3.00;55.72
41062;BME280;26812;42.662;23.352;2023-02-11T04:36:45;96528.25;;;-3.09;55.99
41062;BME280;26812;42.662;23.352;2023-02-11T04:39:11;96506.50;;;-3.18;55.70
41062;BME280;26812;42.662;23.352;2023-02-11T04:41:36;96505.41;;;-3.02;55.49
41062;BME280;26812;42.662;23.352;2023-02-11T04:44:02;96513.56;;;-2.90;55.42
41062;BME280;26812;42.662;23.352;2023-02-11T04:46:28;96462.22;;;-3.29;55.49
41062;BME280;26812;42.662;23.352;2023-02-11T04:48:53;96476.41;;;-3.30;55.49
41062;BME280;26812;42.662;23.352;2023-02-11T04:51:18;96509.66;;;-3.29;56.30
41062;BME280;26812;42.662;23.352;2023-02-11T04:53:44;96503.13;;;-3.61;56.52
41062;BME280;26812;42.662;23.352;2023-02-11T04:56:09;96495.16;;;-3.89;57.36
41062;BME280;26812;42.662;23.352;2023-02-11T04:58:35;96488.09;;;-4.03;57.86
41062;BME280;26812;42.662;23.352;2023-02-11T05:01:11;96508.28;;;-4.10;58.12
41062;BME280;26812;42.662;23.352;2023-02-11T05:03:38;96526.09;;;-4.12;58.83
41062;BME280;26812;42.662;23.352;2023-02-11T05:06:03;96524.28;;;-4.12;59.58
41062;BME280;26812;42.662;23.352;2023-02-11T05:08:29;96501.28;;;-4.39;59.58
41062;BME280;26812;42.662;23.352;2023-02-11T05:10:55;96490.81;;;-4.32;59.30
41062;BME280;26812;42.662;23.352;2023-02-11T05:13:20;96516.38;;;-4.12;59.63
41062;BME280;26812;42.662;23.352;2023-02-11T05:15:46;96470.38;;;-4.52;59.98
41062;BME280;26812;42.662;23.352;2023-02-11T05:18:11;96513.69;;;-4.18;60.09
41062;BME280;26812;42.662;23.352;2023-02-11T05:20:42;96498.19;;;-4.28;60.10
41062;BME280;26812;42.662;23.352;2023-02-11T05:23:08;96503.28;;;-4.05;59.75
41062;BME280;26812;42.662;23.352;2023-02-11T05:25:33;96500.31;;;-4.17;59.78
41062;BME280;26812;42.662;23.352;2023-02-11T05:27:58;96522.19;;;-4.16;59.83
41062;BME280;26812;42.662;23.352;2023-02-11T05:30:24;96509.28;;;-4.47;60.62
41062;BME280;26812;42.662;23.352;2023-02-11T05:32:50;96486.00;;;-4.65;60.98
41062;BME280;26812;42.662;23.352;2023-02-11T05:35:16;96505.13;;;-4.56;61.83
41062;BME280;26812;42.662;23.352;2023-02-11T05:37:42;96522.06;;;-4.44;61.61
41062;BME280;26812;42.662;23.352;2023-02-11T05:40:08;96451.84;;;-4.94;61.56
41062;BME280;26812;42.662;23.352;2023-02-11T05:42:33;96500.13;;;-4.51;61.30
41062;BME280;26812;42.662;23.352;2023-02-11T05:44:59;96518.06;;;-4.25;61.14
41062;BME280;26812;42.662;23.352;2023-02-11T05:47:24;96514.31;;;-4.16;61.01
41062;BME280;26812;42.662;23.352;2023-02-11T05:49:50;96517.13;;;-4.18;60.54
41062;BME280;26812;42.662;23.352;2023-02-11T05:52:16;96478.28;;;-4.52;60.46
41062;BME280;26812;42.662;23.352;2023-02-11T05:54:41;96490.81;;;-4.32;60.31
41062;BME280;26812;42.662;23.352;2023-02-11T05:57:06;96524.28;;;-4.12;60.31
41062;BME280;26812;42.662;23.352;2023-02-11T05:59:32;96504.63;;;-4.30;60.14
41062;BME280;26812;42.662;23.352;2023-02-11T06:02:00;96521.22;;;-4.30;60.61
41062;BME280;26812;42.662;23.352;2023-02-11T06:04:26;96543.44;;;-4.18;60.06
41062;BME280;26812;42.662;23.352;2023-02-11T06:06:51;96492.69;;;-4.48;60.24
41062;BME280;26812;42.662;23.352;2023-02-11T06:09:17;96497.66;;;-4.38;59.89
41062;BME280;26812;42.662;23.352;2023-02-11T06:11:42;96536.06;;;-4.08;59.62
41062;BME280;26812;42.662;23.352;2023-02-11T06:14:07;96461.31;;;-4.49;59.25
41062;BME280;26812;42.662;23.352;2023-02-11T06:16:34;96480.78;;;-4.08;59.36
41062;BME280;26812;42.662;23.352;2023-02-11T06:18:59;96499.13;;;-3.01;57.45
41062;BME280;26812;42.662;23.352;2023-02-11T06:21:24;96545.00;;;-1.32;54.28
41062;BME280;26812;42.662;23.352;2023-02-11T06:23:50;96539.81;;;-0.28;50.13
41062;BME280;26812;42.662;23.352;2023-02-11T06:26:18;96524.47;;;0.64;46.20
41062;BME280;26812;42.662;23.352;2023-02-11T06:28:44;96517.19;;;1.82;45.32
41062;BME280;26812;42.662;23.352;2023-02-11T06:31:10;96519.22;;;2.76;41.77
41062;BME280;26812;42.662;23.352;2023-02-11T06:33:36;96542.22;;;4.51;38.99
41062;BME280;26812;42.662;23.352;2023-02-11T06:36:03;96503.69;;;5.43;35.21
41062;BME280;26812;42.662;23.352;2023-02-11T06:38:29;96524.13;;;4.98;34.71
41062;BME280;26812;42.662;23.352;2023-02-11T06:40:55;96542.47;;;4.10;36.31
41062;BME280;26812;42.662;23.352;2023-02-11T06:43:21;96519.00;;;2.90;38.05
41062;BME280;26812;42.662;23.352;2023-02-11T06:45:52;96534.72;;;1.71;40.87
41062;BME280;26812;42.662;23.352;2023-02-11T06:48:18;96538.09;;;1.17;42.31
41062;BME280;26812;42.662;23.352;2023-02-11T06:50:44;96543.19;;;0.69;43.73
41062;BME280;26812;42.662;23.352;2023-02-11T06:53:09;96508.03;;;0.48;45.12
41062;BME280;26812;42.662;23.352;2023-02-11T06:55:35;96547.91;;;2.44;41.35
41062;BME280;26812;42.662;23.352;2023-02-11T06:58:00;96551.25;;;3.70;39.62
41062;BME280;26812;42.662;23.352;2023-02-11T07:00:26;96538.41;;;6.15;35.12
41062;BME280;26812;42.662;23.352;2023-02-11T07:02:55;96537.47;;;7.76;31.86
41062;BME280;26812;42.662;23.352;2023-02-11T07:05:21;96532.50;;;7.21;31.10
41062;BME280;26812;42.662;23.352;2023-02-11T07:07:46;96511.09;;;6.13;32.58
41062;BME280;26812;42.662;23.352;2023-02-11T07:10:12;96531.88;;;6.54;32.42
41062;BME280;26812;42.662;23.352;2023-02-11T07:12:37;96523.00;;;8.29;30.75
41062;BME280;26812;42.662;23.352;2023-02-11T07:15:04;96481.78;;;9.52;27.99
41062;BME280;26812;42.662;23.352;2023-02-11T07:17:29;96530.97;;;9.73;27.07
41062;BME280;26812;42.662;23.352;2023-02-11T07:19:55;96525.31;;;11.09;25.86
41062;BME280;26812;42.662;23.352;2023-02-11T07:22:20;96513.19;;;11.40;25.51
41062;BME280;26812;42.662;23.352;2023-02-11T07:24:45;96461.34;;;8.80;26.74
41062;BME280;26812;42.662;23.352;2023-02-11T07:27:11;96515.22;;;6.47;30.67
41062;BME280;26812;42.662;23.352;2023-02-11T07:29:36;96493.78;;;7.86;30.37
41062;BME280;26812;42.662;23.352;2023-02-11T07:32:02;96519.06;;;10.00;26.46
41062;BME280;26812;42.662;23.352;2023-02-11T07:34:27;96514.03;;;9.62;26.86
41062;BME280;26812;42.662;23.352;2023-02-11T07:36:53;96504.72;;;11.18;25.80
41062;BME280;26812;42.662;23.352;2023-02-11T07:39:18;96514.78;;;12.71;24.02
41062;BME280;26812;42.662;23.352;2023-02-11T07:41:46;96484.63;;;13.15;22.77
41062;BME280;26812;42.662;23.352;2023-02-11T07:44:13;96478.97;;;14.23;21.17
41062;BME280;26812;42.662;23.352;2023-02-11T07:46:39;96491.88;;;13.98;22.00
41062;BME280;26812;42.662;23.352;2023-02-11T07:49:08;96495.03;;;15.77;20.21
41062;BME280;26812;42.662;23.352;2023-02-11T07:51:34;96487.63;;;18.13;17.84
41062;BME280;26812;42.662;23.352;2023-02-11T07:53:59;96480.22;;;19.97;15.84
41062;BME280;26812;42.662;23.352;2023-02-11T07:56:26;96486.22;;;20.85;15.04
41062;BME280;26812;42.662;23.352;2023-02-11T07:58:52;96479.66;;;21.97;14.38
41062;BME280;26812;42.662;23.352;2023-02-11T08:01:21;96482.53;;;22.48;13.58
41062;BME280;26812;42.662;23.352;2023-02-11T08:03:49;96481.50;;;20.36;14.97
41062;BME280;26812;42.662;23.352;2023-02-11T08:06:17;96471.56;;;20.20;15.23
41062;BME280;26812;42.662;23.352;2023-02-11T08:08:43;96472.50;;;17.60;17.02
41062;BME280;26812;42.662;23.352;2023-02-11T08:11:28;96479.25;;;12.96;21.45
41062;BME280;26812;42.662;23.352;2023-02-11T08:13:54;96475.66;;;11.44;23.49
41062;BME280;26812;42.662;23.352;2023-02-11T08:16:23;96442.50;;;12.58;22.21
41062;BME280;26812;42.662;23.352;2023-02-11T08:18:50;96422.50;;;13.43;21.25
41062;BME280;26812;42.662;23.352;2023-02-11T08:21:16;96463.28;;;14.97;20.07
41062;BME280;26812;42.662;23.352;2023-02-11T08:23:43;96473.19;;;15.38;19.89
41062;BME280;26812;42.662;23.352;2023-02-11T08:26:20;96474.78;;;15.39;19.88
41062;BME280;26812;42.662;23.352;2023-02-11T08:28:48;96468.81;;;14.56;20.36
41062;BME280;26812;42.662;23.352;2023-02-11T08:46:37;96414.22;;;13.80;20.70
41062;BME280;26812;42.662;23.352;2023-02-11T08:49:09;96444.41;;;14.01;21.55
41062;BME280;26812;42.662;23.352;2023-02-11T09:04:29;96451.25;;;15.88;19.72
41062;BME280;26812;42.662;23.352;2023-02-11T09:07:01;96434.47;;;10.99;24.50
41062;BME280;26812;42.662;23.352;2023-02-11T09:09:26;96469.09;;;9.63;26.69
41062;BME280;26812;42.662;23.352;2023-02-11T09:11:52;96441.16;;;8.52;28.70
41062;BME280;26812;42.662;23.352;2023-02-11T09:14:22;96435.16;;;7.10;31.14
41062;BME280;26812;42.662;23.352;2023-02-11T09:16:48;96452.41;;;6.33;32.54
41062;BME280;26812;42.662;23.352;2023-02-11T09:19:14;96449.84;;;8.02;31.04
41062;BME280;26812;42.662;23.352;2023-02-11T09:21:39;96446.19;;;8.28;29.48
41062;BME280;26812;42.662;23.352;2023-02-11T09:24:05;96390.88;;;9.29;28.21
41062;BME280;26812;42.662;23.352;2023-02-11T09:39:55;96434.13;;;14.67;21.31
41062;BME280;26812;42.662;23.352;2023-02-11T09:45:11;96413.88;;;14.86;20.58
41062;BME280;26812;42.662;23.352;2023-02-11T09:52:02;96418.88;;;17.26;18.59
41062;BME280;26812;42.662;23.352;2023-02-11T09:58:27;96344.72;;;19.42;15.85
41062;BME280;26812;42.662;23.352;2023-02-11T10:07:01;96340.91;;;16.95;18.19
41062;BME280;26812;42.662;23.352;2023-02-11T10:09:34;96387.41;;;18.30;16.40
41062;BME280;26812;42.662;23.352;2023-02-11T10:25:53;96299.16;;;20.84;14.64
41062;BME280;26812;42.662;23.352;2023-02-11T10:28:22;96355.91;;;22.69;13.29
41062;BME280;26812;42.662;23.352;2023-02-11T10:31:07;96344.16;;;23.49;12.69
41062;BME280;26812;42.662;23.352;2023-02-11T10:36:16;96278.44;;;21.15;13.70
41062;BME280;26812;42.662;23.352;2023-02-11T10:38:42;96315.13;;;23.10;12.64
41062;BME280;26812;42.662;23.352;2023-02-11T10:41:14;96315.22;;;23.56;11.71
41062;BME280;26812;42.662;23.352;2023-02-11T10:43:41;96288.31;;;23.91;11.99
41062;BME280;26812;42.662;23.352;2023-02-11T10:46:21;96301.81;;;23.31;12.52
41062;BME280;26812;42.662;23.352;2023-02-11T10:48:50;96274.81;;;15.51;17.14
41062;BME280;26812;42.662;23.352;2023-02-11T10:51:20;96262.91;;;19.01;15.97
41062;BME280;26812;42.662;23.352;2023-02-11T10:54:10;96283.53;;;22.07;13.32
41062;BME280;26812;42.662;23.352;2023-02-11T10:56:50;96287.91;;;23.24;12.76
41062;BME280;26812;42.662;23.352;2023-02-11T10:59:29;96275.94;;;22.74;12.58
41062;BME280;26812;42.662;23.352;2023-02-11T11:02:03;96269.59;;;20.77;13.31
41062;BME280;26812;42.662;23.352;2023-02-11T11:07:19;96256.47;;;20.55;14.10
41062;BME280;26812;42.662;23.352;2023-02-11T11:09:57;96251.69;;;19.51;14.84
41062;BME280;26812;42.662;23.352;2023-02-11T11:17:37;96247.69;;;21.68;12.91
41062;BME280;26812;42.662;23.352;2023-02-11T11:20:21;96250.66;;;20.85;13.56
41062;BME280;26812;42.662;23.352;2023-02-11T11:22:49;96248.75;;;16.68;16.60
41062;BME280;26812;42.662;23.352;2023-02-11T11:25:22;96249.50;;;14.05;19.51
41062;BME280;26812;42.662;23.352;2023-02-11T11:27:53;96241.69;;;15.80;18.57
41062;BME280;26812;42.662;23.352;2023-02-11T11:30:21;96211.31;;;16.04;16.92
41062;BME280;26812;42.662;23.352;2023-02-11T11:32:49;96215.63;;;16.14;17.22
41062;BME280;26812;42.662;23.352;2023-02-11T11:35:26;96238.84;;;17.10;16.59
41062;BME280;26812;42.662;23.352;2023-02-11T11:37:56;96243.13;;;16.38;17.13
41062;BME280;26812;42.662;23.352;2023-02-11T11:40:26;96218.78;;;18.24;16.38
41062;BME280;26812;42.662;23.352;2023-02-11T11:45:36;96200.72;;;17.48;15.59
41062;BME280;26812;42.662;23.352;2023-02-11T11:48:17;96228.81;;;19.31;14.99
41062;BME280;26812;42.662;23.352;2023-02-11T11:50:49;96198.41;;;20.22;14.36
41062;BME280;26812;42.662;23.352;2023-02-11T11:53:30;96194.00;;;20.89;13.68
41062;BME280;26812;42.662;23.352;2023-02-11T11:56:04;96209.97;;;18.06;15.24
41062;BME280;26812;42.662;23.352;2023-02-11T11:58:32;96218.22;;;18.72;15.30
41062;BME280;26812;42.662;23.352;2023-02-11T12:14:33;96183.78;;;21.33;13.06
41062;BME280;26812;42.662;23.352;2023-02-11T12:17:32;96179.69;;;21.43;13.07
41062;BME280;26812;42.662;23.352;2023-02-11T12:20:18;96184.78;;;22.69;12.62
41062;BME280;26812;42.662;23.352;2023-02-11T12:25:38;96163.38;;;17.78;16.32
41062;BME280;26812;42.662;23.352;2023-02-11T12:28:15;96157.25;;;16.20;17.21
41062;BME280;26812;42.662;23.352;2023-02-11T12:30:55;96155.13;;;14.82;18.44
41062;BME280;26812;42.662;23.352;2023-02-11T12:33:49;96148.81;;;16.04;16.68
41062;BME280;26812;42.662;23.352;2023-02-11T12:55:19;96110.56;;;13.82;19.29
41062;BME280;26812;42.662;23.352;2023-02-11T12:57:46;96106.31;;;14.43;18.16
41062;BME280;26812;42.662;23.352;2023-02-11T13:00:28;96115.03;;;14.09;18.71
41062;BME280;26812;42.662;23.352;2023-02-11T13:03:06;96116.06;;;15.66;18.28
41062;BME280;26812;42.662;23.352;2023-02-11T13:05:39;96090.09;;;15.17;18.53
41062;BME280;26812;42.662;23.352;2023-02-11T13:08:21;96113.88;;;13.43;20.28
41062;BME280;26812;42.662;23.352;2023-02-11T13:10:53;96118.69;;;13.46;20.03
41062;BME280;26812;42.662;23.352;2023-02-11T13:13:27;96097.75;;;10.74;22.51
41062;BME280;26812;42.662;23.352;2023-02-11T13:16:01;96067.81;;;10.94;22.11
41062;BME280;26812;42.662;23.352;2023-02-11T13:18:53;96103.97;;;12.88;21.01
41062;BME280;26812;42.662;23.352;2023-02-11T13:21:37;96108.66;;;12.83;20.99
41062;BME280;26812;42.662;23.352;2023-02-11T13:24:25;96104.00;;;12.15;21.44
41062;BME280;26812;42.662;23.352;2023-02-11T13:30:26;96103.63;;;13.76;19.49
41062;BME280;26812;42.662;23.352;2023-02-11T13:35:40;96096.31;;;13.04;19.79
41062;BME280;26812;42.662;23.352;2023-02-11T13:40:41;96050.88;;;12.24;21.06
41062;BME280;26812;42.662;23.352;2023-02-11T13:43:22;96087.75;;;12.61;20.90
41062;BME280;26812;42.662;23.352;2023-02-11T13:45:49;96070.88;;;13.19;19.46
41062;BME280;26812;42.662;23.352;2023-02-11T13:50:53;96073.97;;;12.85;20.37
41062;BME280;26812;42.662;23.352;2023-02-11T13:53:20;96085.72;;;12.25;21.54
41062;BME280;26812;42.662;23.352;2023-02-11T13:55:49;96064.16;;;13.39;19.56
41062;BME280;26812;42.662;23.352;2023-02-11T14:00:53;96065.56;;;15.65;16.87
41062;BME280;26812;42.662;23.352;2023-02-11T14:14:24;96055.41;;;14.88;16.82
41062;BME280;26812;42.662;23.352;2023-02-11T14:22:39;96059.06;;;12.19;20.01
41062;BME280;26812;42.662;23.352;2023-02-11T14:25:04;96019.78;;;9.87;22.63
41062;BME280;26812;42.662;23.352;2023-02-11T14:27:59;96031.66;;;10.95;21.29
41062;BME280;26812;42.662;23.352;2023-02-11T14:30:38;96045.09;;;9.18;23.86
41062;BME280;26812;42.662;23.352;2023-02-11T14:36:01;96034.50;;;10.85;22.16
41062;BME280;26812;42.662;23.352;2023-02-11T14:44:16;95970.81;;;8.59;25.60
41062;BME280;26812;42.662;23.352;2023-02-11T14:46:50;96043.75;;;8.12;26.17
41062;BME280;26812;42.662;23.352;2023-02-11T14:49:29;96043.06;;;7.45;26.84
41062;BME280;26812;42.662;23.352;2023-02-11T14:52:00;96032.88;;;7.16;28.21
41062;BME280;26812;42.662;23.352;2023-02-11T14:54:28;96033.94;;;7.21;28.15
41062;BME280;26812;42.662;23.352;2023-02-11T14:57:13;96028.06;;;7.19;28.67
41062;BME280;26812;42.662;23.352;2023-02-11T14:59:39;96031.25;;;6.90;28.68
41062;BME280;26812;42.662;23.352;2023-02-11T15:02:28;96048.13;;;6.96;28.87
41062;BME280;26812;42.662;23.352;2023-02-11T15:04:54;96048.84;;;6.56;30.22
41062;BME280;26812;42.662;23.352;2023-02-11T15:07:43;96034.38;;;5.89;30.04
41062;BME280;26812;42.662;23.352;2023-02-11T15:10:26;96036.31;;;6.04;30.43
41062;BME280;26812;42.662;23.352;2023-02-11T15:12:56;96004.09;;;5.36;30.97
41062;BME280;26812;42.662;23.352;2023-02-11T15:15:22;95977.53;;;5.61;31.44
41062;BME280;26812;42.662;23.352;2023-02-11T15:17:48;96016.00;;;5.60;31.40
41062;BME280;26812;42.662;23.352;2023-02-11T15:20:34;96027.34;;;5.36;32.33
41062;BME280;26812;42.662;23.352;2023-02-11T15:23:06;96019.81;;;5.27;32.36
41062;BME280;26812;42.662;23.352;2023-02-11T15:25:33;96026.38;;;5.15;33.08
41062;BME280;26812;42.662;23.352;2023-02-11T15:28:18;96008.47;;;4.83;32.25
41062;BME280;26812;42.662;23.352;2023-02-11T15:30:45;96027.91;;;5.06;32.52
41062;BME280;26812;42.662;23.352;2023-02-11T15:33:21;96021.63;;;4.90;32.42
41062;BME280;26812;42.662;23.352;2023-02-11T15:35:46;96026.50;;;4.98;33.19
41062;BME280;26812;42.662;23.352;2023-02-11T15:38:12;96015.50;;;5.21;33.27
41062;BME280;26812;42.662;23.352;2023-02-11T15:40:38;96010.78;;;5.02;33.49
41062;BME280;26812;42.662;23.352;2023-02-11T15:43:06;96024.22;;;5.12;33.12
41062;BME280;26812;42.662;23.352;2023-02-11T15:45:33;96027.16;;;4.83;33.53
41062;BME280;26812;42.662;23.352;2023-02-11T15:48:10;96013.22;;;4.49;34.12
41062;BME280;26812;42.662;23.352;2023-02-11T15:50:38;96032.34;;;4.41;34.52
41062;BME280;26812;42.662;23.352;2023-02-11T15:53:32;96024.88;;;4.65;35.13
41062;BME280;26812;42.662;23.352;2023-02-11T15:56:07;96016.25;;;4.31;34.50
41062;BME280;26812;42.662;23.352;2023-02-11T15:58:39;96023.66;;;4.51;34.75
41062;BME280;26812;42.662;23.352;2023-02-11T16:01:06;96033.22;;;4.25;35.35
41062;BME280;26812;42.662;23.352;2023-02-11T16:03:32;96038.94;;;4.12;35.61
41062;BME280;26812;42.662;23.352;2023-02-11T16:06:19;96035.84;;;3.76;36.96
41062;BME280;26812;42.662;23.352;2023-02-11T16:09:02;96035.84;;;3.98;36.29
41062;BME280;26812;42.662;23.352;2023-02-11T16:14:23;96029.16;;;4.17;35.59
41062;BME280;26812;42.662;23.352;2023-02-11T16:17:40;96027.22;;;4.13;36.53
41062;BME280;26812;42.662;23.352;2023-02-11T16:19:45;96002.13;;;4.09;36.49
41062;BME280;26812;42.662;23.352;2023-02-11T16:22:17;96032.31;;;4.14;36.34
41062;BME280;26812;42.662;23.352;2023-02-11T16:24:46;96023.25;;;3.93;37.05
41062;BME280;26812;42.662;23.352;2023-02-11T16:29:48;96026.84;;;3.82;37.02
41062;BME280;26812;42.662;23.352;2023-02-11T16:32:26;96037.28;;;3.67;36.81
41062;BME280;26812;42.662;23.352;2023-02-11T16:34:53;95975.31;;;3.16;37.54
41062;BME280;26812;42.662;23.352;2023-02-11T16:37:19;96025.50;;;3.24;37.25